Time;durP1;ratioP1;P1;durP2;ratioP2;P2;SDS_P1;SDS_P2;PMS_P1;PMS_P2;Temp;Humidity;BMP_temperature;BMP_pressure;BME280_temperature;BME280_humidity;BME280_pressure;Samples;Min_cycle;Max_cycle;Signal;HPM_P1;HPM_P2
2023/06/21 00:02:13;;;;;;;;;;;;;;;25.72;61.29;100416.61;2254544;77;22440;-75
2023/06/21 00:12:31;;;;;;;;;;;;;;;25.69;61.61;100415.73;2266689;77;22297;-75
2023/06/21 00:15:32;;;;;;;;;;;;;;;25.69;61.50;100422.51;2293473;76;51622;-75
2023/06/21 00:18:34;;;;;;;;;;;;;;;25.68;61.56;100427.61;2293265;77;51514;-75
2023/06/21 00:21:38;;;;;;;;;;;;;;;25.67;61.54;100431.40;2293364;77;51571;-75
2023/06/21 00:24:39;;;;;;;;;;;;;;;25.69;61.13;100427.92;2293908;76;22347;-75
2023/06/21 00:27:42;;;;;;;;;;;;;;;25.68;61.20;100431.68;2292665;77;52596;-75
2023/06/21 00:30:44;;;;;;;;;;;;;;;25.68;61.37;100434.39;2315396;76;50674;-75
2023/06/21 00:33:45;;;;;;;;;;;;;;;25.69;61.24;100431.99;2293396;77;50259;-75
2023/06/21 00:36:47;;;;;;;;;;;;;;;25.68;61.31;100449.30;2253524;77;50770;-74
2023/06/21 00:39:48;;;;;;;;;;;;;;;25.69;61.21;100447.41;2187154;78;50456;-75
2023/06/21 00:42:50;;;;;;;;;;;;;;;25.69;61.13;100446.05;2280725;75;51497;-73
2023/06/21 00:45:54;;;;;;;;;;;;;;;25.70;61.02;100443.11;2315558;76;51361;-74
2023/06/21 00:48:55;;;;;;;;;;;;;;;25.71;61.02;100449.36;2315344;75;22408;-74
2023/06/21 00:51:59;;;;;;;;;;;;;;;25.68;61.12;100453.89;2293502;77;50623;-75
2023/06/21 00:55:00;;;;;;;;;;;;;;;25.68;61.04;100447.94;2293650;75;50287;-75
2023/06/21 00:58:02;;;;;;;;;;;;;;;25.68;61.08;100433.03;2315193;77;50315;-74
2023/06/21 01:01:04;;;;;;;;;;;;;;;25.69;61.01;100410.81;2315335;75;51557;-74
2023/06/21 01:04:10;;;;;;;;;;;;;;;25.67;61.00;100404.30;2268426;77;53026;-74
2023/06/21 01:07:20;;;;;;;;;;;;;;;25.68;60.92;100415.95;2313837;75;22799;-75
2023/06/21 01:10:26;;;;;;;;;;;;;;;25.67;61.02;100417.84;2287744;76;51551;-74
2023/06/21 01:13:38;;;;;;;;;;;;;;;25.66;61.03;100414.83;2256115;77;50437;-74
2023/06/21 01:16:40;;;;;;;;;;;;;;;25.67;60.84;100415.67;2232472;79;51383;-74
2023/06/21 01:19:43;;;;;;;;;;;;;;;25.64;60.88;100421.86;2257305;79;50444;-74
2023/06/21 01:22:47;;;;;;;;;;;;;;;25.65;60.93;100405.06;2258305;78;50435;-75
2023/06/21 01:26:08;;;;;;;;;;;;;;;25.67;60.76;100405.66;2257366;77;50361;-76
2023/06/21 01:29:14;;;;;;;;;;;;;;;25.65;60.88;100410.48;2233822;78;51980;-76
2023/06/21 01:32:16;;;;;;;;;;;;;;;25.64;60.89;100410.20;2256291;78;50883;-75
2023/06/21 01:35:19;;;;;;;;;;;;;;;25.66;60.87;100411.30;2257732;79;50437;-75
2023/06/21 01:38:21;;;;;;;;;;;;;;;25.64;60.81;100400.18;2261956;78;51617;-74
2023/06/21 01:41:25;;;;;;;;;;;;;;;25.64;60.80;100407.48;2243758;78;50172;-77
2023/06/21 01:44:27;;;;;;;;;;;;;;;25.64;60.69;100404.78;2234695;78;22417;-76
2023/06/21 01:47:29;;;;;;;;;;;;;;;25.66;60.52;100402.63;2258281;77;51421;-75
2023/06/21 01:50:31;;;;;;;;;;;;;;;25.68;60.30;100407.29;2262123;78;50704;-75
2023/06/21 01:53:33;;;;;;;;;;;;;;;25.71;60.11;100401.39;2239659;79;51616;-75
2023/06/21 01:56:34;;;;;;;;;;;;;;;25.68;60.28;100400.52;2260457;78;51226;-76
2023/06/21 01:59:36;;;;;;;;;;;;;;;25.69;60.18;100408.96;2257736;77;51488;-76
2023/06/21 02:02:39;;;;;;;;;;;;;;;25.75;59.92;100405.29;2257653;79;51442;-76
2023/06/21 02:05:40;;;;;;;;;;;;;;;25.75;59.75;100409.89;2233897;78;50125;-77
2023/06/21 02:08:42;;;;;;;;;;;;;;;25.74;59.65;100415.00;2234406;78;51454;-77
2023/06/21 02:11:44;;;;;;;;;;;;;;;25.75;59.59;100413.95;2277352;77;50521;-77
2023/06/21 02:14:45;;;;;;;;;;;;;;;25.75;59.52;100416.67;2257177;79;50624;-77
2023/06/21 02:17:50;;;;;;;;;;;;;;;25.74;59.47;100428.05;2233355;79;51059;-76
2023/06/21 02:21:01;;;;;;;;;;;;;;;25.73;59.50;100429.63;2234387;78;51570;-76
2023/06/21 02:24:04;;;;;;;;;;;;;;;25.72;59.37;100454.55;2257134;79;50656;-76
2023/06/21 02:27:05;;;;;;;;;;;;;;;25.73;59.32;100495.48;2233771;79;51598;-75
2023/06/21 02:30:08;;;;;;;;;;;;;;;25.73;59.22;100487.36;2210236;79;51545;-75
2023/06/21 02:33:09;;;;;;;;;;;;;;;25.75;59.17;100496.62;2234097;79;50287;-76
2023/06/21 02:36:11;;;;;;;;;;;;;;;25.73;59.12;100509.03;2256969;79;50182;-76
2023/06/21 02:39:13;;;;;;;;;;;;;;;25.72;59.15;100507.94;2257197;78;50717;-77
2023/06/21 02:42:15;;;;;;;;;;;;;;;25.72;59.10;100515.53;2209493;79;50084;-76
2023/06/21 02:45:16;;;;;;;;;;;;;;;25.71;59.14;100507.08;2257262;79;51601;-76
2023/06/21 02:48:18;;;;;;;;;;;;;;;25.73;59.11;100509.03;2257027;77;51524;-76
2023/06/21 02:51:20;;;;;;;;;;;;;;;25.71;59.14;100504.38;2257125;78;51672;-76
2023/06/21 02:54:22;;;;;;;;;;;;;;;25.72;59.10;100511.46;2257170;77;50861;-75
2023/06/21 02:57:23;;;;;;;;;;;;;;;25.71;59.10;100523.34;2233404;79;51549;-76
2023/06/21 03:00:31;;;;;;;;;;;;;;;25.71;59.10;100493.53;2257216;78;50735;-77
2023/06/21 03:03:31;;;;;;;;;;;;;;;25.71;59.21;100482.69;2234532;79;22463;-76
2023/06/21 03:06:33;;;;;;;;;;;;;;;25.71;59.08;100474.56;2256772;78;50704;-76
2023/06/21 03:09:35;;;;;;;;;;;;;;;25.70;59.33;100462.09;2234407;78;51579;-75
2023/06/21 03:12:37;;;;;;;;;;;;;;;25.70;59.28;100448.53;2255416;78;50356;-75
2023/06/21 03:15:38;;;;;;;;;;;;;;;25.70;59.35;100459.38;2231379;79;50412;-76
2023/06/21 03:18:40;;;;;;;;;;;;;;;25.71;59.32;100458.84;2207198;79;51705;-76
2023/06/21 03:21:41;;;;;;;;;;;;;;;25.70;59.32;100452.60;2254180;79;50683;-76
2023/06/21 03:24:43;;;;;;;;;;;;;;;25.71;59.51;100452.88;2231214;79;53465;-74
2023/06/21 03:27:45;;;;;;;;;;;;;;;25.70;59.51;100444.47;2230775;79;51430;-76
2023/06/21 03:30:46;;;;;;;;;;;;;;;25.68;59.58;100449.30;2231290;78;50094;-76
2023/06/21 03:33:48;;;;;;;;;;;;;;;25.68;59.63;100456.06;2254366;79;51484;-76
2023/06/21 03:36:53;;;;;;;;;;;;;;;25.68;59.63;100465.55;2254244;79;50726;-76
2023/06/21 03:39:53;;;;;;;;;;;;;;;25.69;59.62;100479.42;2255928;78;22752;-76
2023/06/21 03:42:55;;;;;;;;;;;;;;;25.71;59.56;100484.05;2229531;78;50234;-76
2023/06/21 03:45:58;;;;;;;;;;;;;;;25.70;59.47;100482.41;2234603;78;50260;-75
2023/06/21 03:48:59;;;;;;;;;;;;;;;25.70;59.53;100476.17;2234175;79;22534;-76
2023/06/21 03:52:01;;;;;;;;;;;;;;;25.71;59.54;100469.68;2234035;79;51440;-76
2023/06/21 03:55:03;;;;;;;;;;;;;;;25.68;59.45;100476.39;2234001;78;50873;-77
2023/06/21 03:58:04;;;;;;;;;;;;;;;25.68;59.40;100472.33;2256982;79;50646;-77
2023/06/21 04:01:06;;;;;;;;;;;;;;;25.69;59.44;100479.92;2234081;79;50676;-76
2023/06/21 04:04:07;;;;;;;;;;;;;;;25.69;59.59;100483.48;2257250;78;51531;-76
2023/06/21 04:07:09;;;;;;;;;;;;;;;25.68;59.79;100484.52;2209957;79;52261;-76
2023/06/21 04:10:12;;;;;;;;;;;;;;;25.66;59.51;100486.64;2234461;78;51407;-75
2023/06/21 04:13:14;;;;;;;;;;;;;;;25.66;59.43;100496.12;2281900;77;50260;-77
2023/06/21 04:16:15;;;;;;;;;;;;;;;25.68;59.57;100486.41;2293403;77;50856;-77
2023/06/21 04:19:17;;;;;;;;;;;;;;;25.69;59.67;100479.42;2268429;77;52694;-76
2023/06/21 04:22:21;;;;;;;;;;;;;;;25.69;60.02;100478.06;2315499;77;51535;-76
2023/06/21 04:25:22;;;;;;;;;;;;;;;25.69;60.26;100493.47;2294057;77;22302;-76
2023/06/21 04:28:25;;;;;;;;;;;;;;;25.67;60.24;100511.34;2292779;77;50275;-76
2023/06/21 04:31:28;;;;;;;;;;;;;;;25.66;60.31;100538.66;2268526;77;52455;-75
2023/06/21 04:34:29;;;;;;;;;;;;;;;25.66;60.30;100548.96;2293611;77;50461;-75
2023/06/21 04:37:32;;;;;;;;;;;;;;;25.68;60.02;100562.29;2293137;77;50473;-76
2023/06/21 04:40:34;;;;;;;;;;;;;;;25.70;60.23;100566.42;2273276;77;51726;-76
2023/06/21 04:43:36;;;;;;;;;;;;;;;25.70;60.40;100569.66;2238636;78;52530;-76
2023/06/21 04:46:37;;;;;;;;;;;;;;;25.71;60.28;100582.97;2231445;79;52600;-77
2023/06/21 04:49:39;;;;;;;;;;;;;;;25.75;60.27;100591.48;2254471;79;51400;-76
2023/06/21 04:52:40;;;;;;;;;;;;;;;25.75;60.38;100592.30;2231183;77;53726;-75
2023/06/21 04:55:43;;;;;;;;;;;;;;;25.77;60.37;100594.25;2207249;79;53732;-74
2023/06/21 04:58:45;;;;;;;;;;;;;;;25.77;60.25;100591.54;2231107;78;50681;-74
2023/06/21 05:01:47;;;;;;;;;;;;;;;25.78;60.15;100595.89;2232749;77;51514;-71
2023/06/21 05:04:48;;;;;;;;;;;;;;;25.79;60.50;100602.13;2258914;77;51414;-72
2023/06/21 05:07:50;;;;;;;;;;;;;;;25.80;60.43;100603.27;2261262;77;51490;-74
2023/06/21 05:10:51;;;;;;;;;;;;;;;25.84;60.28;100604.50;2311869;77;51512;-73
2023/06/21 05:13:53;;;;;;;;;;;;;;;25.88;60.22;100598.61;2261426;77;50337;-72
2023/06/21 05:16:54;;;;;;;;;;;;;;;25.82;60.47;100603.87;2250336;77;50339;-75
2023/06/21 05:19:56;;;;;;;;;;;;;;;25.82;60.25;100603.87;2250239;77;51637;-73
2023/06/21 05:22:58;;;;;;;;;;;;;;;25.84;60.17;100588.23;2308660;77;51550;-73
2023/06/21 05:25:59;;;;;;;;;;;;;;;25.87;61.19;100603.71;2275252;77;50376;-74
2023/06/21 05:29:01;;;;;;;;;;;;;;;25.82;60.90;100613.36;2308424;77;50271;-72
2023/06/21 05:32:02;;;;;;;;;;;;;;;25.87;60.91;100602.36;2274900;77;49613;-74
2023/06/21 05:35:04;;;;;;;;;;;;;;;25.87;61.45;100611.84;2261080;77;50274;-73
2023/06/21 05:38:08;;;;;;;;;;;;;;;25.84;61.71;100608.56;2257061;79;51574;-72
2023/06/21 05:41:09;;;;;;;;;;;;;;;25.87;61.75;100613.20;2234567;78;22303;-73
2023/06/21 05:44:11;;;;;;;;;;;;;;;25.88;62.40;100609.45;2211824;77;49638;-73
2023/06/21 05:47:13;;;;;;;;;;;;;;;25.93;61.89;100624.48;2297883;76;50287;-72
2023/06/21 05:50:15;;;;;;;;;;;;;;;26.02;61.71;100639.34;2297957;76;51556;-74
2023/06/21 05:53:17;;;;;;;;;;;;;;;25.88;62.49;100639.27;2276892;77;52098;-73
2023/06/21 05:56:18;;;;;;;;;;;;;;;25.78;62.73;100637.08;2246495;77;50963;-72
2023/06/21 05:59:20;;;;;;;;;;;;;;;25.73;62.55;100627.47;2266102;77;51524;-73
2023/06/21 06:02:21;;;;;;;;;;;;;;;25.78;61.90;100628.95;2259062;78;51571;-72
2023/06/21 06:05:23;;;;;;;;;;;;;;;25.82;61.32;100630.97;2272831;77;51415;-73
2023/06/21 06:08:25;;;;;;;;;;;;;;;25.85;61.46;100629.18;2308491;77;51445;-74
2023/06/21 06:11:27;;;;;;;;;;;;;;;25.85;61.44;100637.31;2266521;77;51114;-71
2023/06/21 06:14:28;;;;;;;;;;;;;;;25.82;61.66;100642.35;2258275;78;50732;-71
2023/06/21 06:17:30;;;;;;;;;;;;;;;25.83;61.40;100631.80;2258736;77;51424;-71
2023/06/21 06:20:31;;;;;;;;;;;;;;;25.81;61.41;100636.61;2236067;78;49714;-72
2023/06/21 06:23:33;;;;;;;;;;;;;;;25.80;61.29;100649.34;2211787;78;52733;-74
2023/06/21 06:26:35;;;;;;;;;;;;;;;25.80;61.08;100642.57;2258719;78;51519;-72
2023/06/21 06:29:36;;;;;;;;;;;;;;;25.80;61.05;100645.28;2258408;78;51295;-73
2023/06/21 06:32:38;;;;;;;;;;;;;;;25.83;60.85;100642.64;2258842;77;51332;-74
2023/06/21 06:35:39;;;;;;;;;;;;;;;25.89;60.85;100653.11;2234515;77;50996;-72
2023/06/21 06:38:41;;;;;;;;;;;;;;;26.02;60.67;100658.32;2263790;77;51499;-72
2023/06/21 06:41:43;;;;;;;;;;;;;;;26.19;60.82;100662.55;2283588;77;51470;-74
2023/06/21 06:44:44;;;;;;;;;;;;;;;26.26;60.70;100657.31;2231187;79;51543;-72
2023/06/21 06:47:46;;;;;;;;;;;;;;;26.32;60.56;100655.55;2254088;79;51583;-72
2023/06/21 06:50:47;;;;;;;;;;;;;;;26.35;60.52;100648.83;2254326;77;51610;-73
2023/06/21 06:53:49;;;;;;;;;;;;;;;26.39;60.72;100650.84;2254234;79;52338;-72
2023/06/21 06:56:51;;;;;;;;;;;;;;;26.44;60.88;100650.95;2230948;79;50394;-73
2023/06/21 06:59:53;;;;;;;;;;;;;;;26.46;60.91;100658.84;2254118;79;51631;-73
2023/06/21 07:02:56;;;;;;;;;;;;;;;26.44;60.64;100660.99;2231308;79;51589;-72
2023/06/21 07:05:57;;;;;;;;;;;;;;;26.31;61.17;100663.91;2254357;77;22342;-72
2023/06/21 07:09:00;;;;;;;;;;;;;;;26.39;60.91;100669.01;2231559;79;52141;-72
2023/06/21 07:12:02;;;;;;;;;;;;;;;26.44;60.71;100665.06;2228142;77;51080;-73
2023/06/21 07:15:04;;;;;;;;;;;;;;;26.39;60.58;100673.08;2234087;79;50303;-72
2023/06/21 07:18:05;;;;;;;;;;;;;;;26.51;60.75;100680.67;2233054;79;51508;-73
2023/06/21 07:21:07;;;;;;;;;;;;;;;26.46;60.41;100684.63;2233952;78;49850;-73
2023/06/21 07:24:09;;;;;;;;;;;;;;;26.46;60.23;100695.47;2210634;79;51669;-73
2023/06/21 07:27:10;;;;;;;;;;;;;;;26.37;60.34;100705.03;2257283;79;50344;-73
2023/06/21 07:30:12;;;;;;;;;;;;;;;26.23;60.75;100706.61;2233699;78;50365;-74
2023/06/21 07:33:13;;;;;;;;;;;;;;;26.22;60.54;100713.08;2257417;77;51493;-74
2023/06/21 07:36:15;;;;;;;;;;;;;;;26.16;60.53;100716.73;2231838;79;51165;-73
2023/06/21 07:39:17;;;;;;;;;;;;;;;26.26;60.31;100715.63;2228517;78;50074;-73
2023/06/21 07:42:18;;;;;;;;;;;;;;;26.24;60.44;100724.53;2256364;77;50236;-72
2023/06/21 07:45:20;;;;;;;;;;;;;;;26.37;60.00;100725.38;2233749;79;51509;-72
2023/06/21 07:48:22;;;;;;;;;;;;;;;26.31;60.25;100731.22;2209563;79;51018;-72
2023/06/21 07:51:23;;;;;;;;;;;;;;;26.31;60.35;100730.37;2234202;78;51547;-72
2023/06/21 07:54:25;;;;;;;;;;;;;;;26.41;60.23;100734.69;2257326;78;51449;-72
2023/06/21 07:57:26;;;;;;;;;;;;;;;26.33;60.82;100740.46;2233783;79;49580;-73
2023/06/21 08:00:28;;;;;;;;;;;;;;;26.38;60.65;100741.95;2234019;78;50413;-74
2023/06/21 08:03:29;;;;;;;;;;;;;;;26.40;60.31;100746.08;2234024;79;50245;-72
2023/06/21 08:06:31;;;;;;;;;;;;;;;26.37;60.02;100752.52;2233848;79;51573;-73
2023/06/21 08:09:33;;;;;;;;;;;;;;;26.34;59.96;100746.20;2237437;77;50299;-74
2023/06/21 08:12:34;;;;;;;;;;;;;;;26.31;60.00;100743.92;2232754;79;50789;-71
2023/06/21 08:15:36;;;;;;;;;;;;;;;26.33;60.17;100754.02;2230276;77;50695;-73
2023/06/21 08:18:37;;;;;;;;;;;;;;;26.41;60.22;100765.89;2294772;77;50404;-74
2023/06/21 08:21:39;;;;;;;;;;;;;;;26.47;60.05;100766.34;2259180;77;50705;-72
2023/06/21 08:24:41;;;;;;;;;;;;;;;26.48;60.65;100758.48;2236548;78;51135;-71
2023/06/21 08:27:42;;;;;;;;;;;;;;;26.49;60.49;100752.02;2258780;78;50436;-74
2023/06/21 08:30:44;;;;;;;;;;;;;;;26.59;59.92;100766.37;2236004;78;50148;-74
2023/06/21 08:33:45;;;;;;;;;;;;;;;26.57;59.92;100762.55;2258917;78;50328;-73
2023/06/21 08:36:47;;;;;;;;;;;;;;;26.58;59.77;100762.84;2258934;78;50421;-72
2023/06/21 08:39:51;;;;;;;;;;;;;;;26.52;60.21;100775.99;2248689;77;50333;-72
2023/06/21 08:42:53;;;;;;;;;;;;;;;26.50;60.04;100765.87;2272836;77;22494;-72
2023/06/21 08:45:55;;;;;;;;;;;;;;;26.60;59.67;100778.91;2315423;76;51499;-74
2023/06/21 08:48:57;;;;;;;;;;;;;;;26.61;59.78;100774.58;2261308;77;51064;-73
2023/06/21 08:51:59;;;;;;;;;;;;;;;26.62;59.61;100772.71;2260388;77;51621;-73
2023/06/21 08:55:02;;;;;;;;;;;;;;;26.52;59.73;100785.49;2264851;77;51530;-73
2023/06/21 08:58:08;;;;;;;;;;;;;;;26.64;59.78;100789.06;2256774;78;52156;-73
2023/06/21 09:01:10;;;;;;;;;;;;;;;26.64;59.68;100781.42;2260124;77;52862;-73
2023/06/21 09:04:12;;;;;;;;;;;;;;;26.67;59.57;100789.95;2291440;77;51543;-72
2023/06/21 09:07:14;;;;;;;;;;;;;;;26.57;60.01;100793.77;2308403;77;50774;-71
2023/06/21 09:10:18;;;;;;;;;;;;;;;26.54;59.94;100798.81;2308583;77;50709;-69
2023/06/21 09:13:19;;;;;;;;;;;;;;;26.67;59.68;100802.70;2264542;75;22558;-72
2023/06/21 09:16:21;;;;;;;;;;;;;;;26.60;59.93;100808.22;2235724;78;50046;-72
2023/06/21 09:19:23;;;;;;;;;;;;;;;26.56;59.91;100816.52;2258736;77;50773;-71
2023/06/21 09:22:24;;;;;;;;;;;;;;;26.54;59.74;100810.52;2249107;77;50885;-72
2023/06/21 09:25:26;;;;;;;;;;;;;;;26.53;59.69;100814.80;2267391;77;51128;-71
2023/06/21 09:28:28;;;;;;;;;;;;;;;26.50;59.69;100816.89;2230798;79;51618;-71
2023/06/21 09:31:29;;;;;;;;;;;;;;;26.48;59.63;100823.61;2254222;79;50299;-71
2023/06/21 09:34:31;;;;;;;;;;;;;;;26.46;59.61;100828.43;2256360;78;51435;-74
2023/06/21 09:37:36;;;;;;;;;;;;;;;26.44;59.57;100831.93;2258748;78;50188;-71
2023/06/21 09:40:42;;;;;;;;;;;;;;;26.44;59.52;100827.86;2235991;78;51455;-71
2023/06/21 09:43:44;;;;;;;;;;;;;;;26.43;59.46;100827.55;2246285;77;50663;-75
2023/06/21 09:46:47;;;;;;;;;;;;;;;26.41;59.38;100826.44;2271695;77;50300;-72
2023/06/21 09:49:51;;;;;;;;;;;;;;;26.41;59.33;100829.66;2281601;77;50323;-72
2023/06/21 09:52:52;;;;;;;;;;;;;;;26.41;59.30;100833.72;2286306;77;51508;-72
2023/06/21 09:56:00;;;;;;;;;;;;;;;26.40;59.26;100827.48;2233215;79;50138;-71
2023/06/21 09:58:57;;;;;;;;;;;;;;;26.38;59.26;100827.41;2256039;78;22206;-72
2023/06/21 10:01:59;;;;;;;;;;;;;;;26.37;59.26;100823.05;2233592;79;51189;-72
2023/06/21 10:05:01;;;;;;;;;;;;;;;26.34;59.27;100824.34;2284772;77;50293;-71
2023/06/21 10:08:04;;;;;;;;;;;;;;;26.35;59.30;100830.59;2308321;77;50722;-72
2023/06/21 10:11:06;;;;;;;;;;;;;;;26.34;59.34;100822.16;2308309;76;51556;-72
2023/06/21 10:14:07;;;;;;;;;;;;;;;26.36;59.27;100848.00;2274758;77;51501;-72
2023/06/21 10:17:09;;;;;;;;;;;;;;;26.35;59.28;100833.30;2254945;78;51404;-72
2023/06/21 10:20:11;;;;;;;;;;;;;;;26.35;59.29;100831.95;2256053;79;51463;-72
2023/06/21 10:23:13;;;;;;;;;;;;;;;26.33;59.37;100838.13;2265338;77;50354;-73
2023/06/21 10:26:15;;;;;;;;;;;;;;;26.35;59.35;100837.37;2242291;77;52429;-74
2023/06/21 10:29:17;;;;;;;;;;;;;;;26.34;59.34;100841.97;2254145;79;50653;-74
2023/06/21 10:32:18;;;;;;;;;;;;;;;26.36;59.33;100839.87;2254027;79;51430;-73
2023/06/21 10:35:21;;;;;;;;;;;;;;;26.35;59.32;100842.27;2254250;79;51535;-73
2023/06/21 10:38:27;;;;;;;;;;;;;;;26.35;59.26;100840.91;2253910;79;51536;-73
2023/06/21 10:41:29;;;;;;;;;;;;;;;26.39;59.53;100841.29;2253444;77;50787;-73
2023/06/21 10:44:30;;;;;;;;;;;;;;;26.44;59.39;100845.50;2254137;79;51504;-73
2023/06/21 10:47:32;;;;;;;;;;;;;;;26.42;59.10;100843.00;2230887;79;51422;-73
2023/06/21 10:50:33;;;;;;;;;;;;;;;26.42;59.09;100842.18;2231253;79;51092;-73
2023/06/21 10:53:35;;;;;;;;;;;;;;;26.43;59.09;100860.11;2246292;77;50220;-73
2023/06/21 10:56:37;;;;;;;;;;;;;;;26.43;59.09;100860.92;2235670;78;51480;-73
2023/06/21 10:59:38;;;;;;;;;;;;;;;26.41;59.01;100857.64;2231335;79;51479;-73
2023/06/21 11:02:40;;;;;;;;;;;;;;;26.40;58.98;100858.67;2231559;79;52394;-73
2023/06/21 11:05:42;;;;;;;;;;;;;;;26.42;58.75;100858.46;2254508;77;51650;-73
2023/06/21 11:08:43;;;;;;;;;;;;;;;26.46;58.61;100859.64;2254259;79;50376;-73
2023/06/21 11:11:51;;;;;;;;;;;;;;;26.44;58.56;100869.92;2254250;78;50648;-73
2023/06/21 11:14:54;;;;;;;;;;;;;;;26.45;58.52;100863.42;2234397;78;51788;-75
2023/06/21 11:18:03;;;;;;;;;;;;;;;26.47;58.47;100858.59;2255719;79;51557;-72
2023/06/21 11:21:05;;;;;;;;;;;;;;;26.47;58.50;100868.91;2257033;79;51369;-74
2023/06/21 11:24:07;;;;;;;;;;;;;;;26.48;58.44;100856.99;2233069;78;50255;-75
2023/06/21 11:27:09;;;;;;;;;;;;;;;26.46;58.48;100859.64;2233759;78;51088;-73
2023/06/21 11:30:12;;;;;;;;;;;;;;;26.46;58.46;100859.64;2257121;79;50715;-73
2023/06/21 11:33:20;;;;;;;;;;;;;;;26.49;58.34;100861.91;2234390;78;51471;-72
2023/06/21 11:36:23;;;;;;;;;;;;;;;26.47;58.33;100864.84;2256860;77;50703;-74
2023/06/21 11:39:25;;;;;;;;;;;;;;;26.51;58.27;100873.34;2236450;77;51767;-74
2023/06/21 11:42:27;;;;;;;;;;;;;;;26.50;58.27;100876.59;2285071;77;51422;-74
2023/06/21 11:45:35;;;;;;;;;;;;;;;26.47;58.29;100861.31;2254245;77;50328;-76
2023/06/21 11:48:38;;;;;;;;;;;;;;;26.44;58.35;100873.98;2230712;77;50392;-74
2023/06/21 11:51:54;;;;;;;;;;;;;;;26.49;58.15;100883.63;2255012;77;50475;-72
2023/06/21 11:54:57;;;;;;;;;;;;;;;26.48;58.13;100877.87;2255721;76;51716;-72
2023/06/21 11:57:59;;;;;;;;;;;;;;;26.49;58.09;100886.34;2256649;79;51570;-73
2023/06/21 12:01:01;;;;;;;;;;;;;;;26.49;58.04;100894.48;2233737;78;50454;-74
2023/06/21 12:04:02;;;;;;;;;;;;;;;26.49;57.96;100903.98;2233616;78;52556;-74
2023/06/21 12:07:04;;;;;;;;;;;;;;;26.48;57.91;100909.91;2233409;79;50271;-74
2023/06/21 12:10:06;;;;;;;;;;;;;;;26.48;57.92;100919.94;2235910;77;50768;-73
2023/06/21 12:13:08;;;;;;;;;;;;;;;26.49;57.78;100913.47;2273543;76;51475;-73
2023/06/21 12:16:10;;;;;;;;;;;;;;;26.51;57.67;100919.47;2233444;78;51232;-73
2023/06/21 12:19:11;;;;;;;;;;;;;;;26.53;57.60;100916.58;2233419;78;50402;-73
2023/06/21 12:22:14;;;;;;;;;;;;;;;26.51;57.61;100911.33;2233756;77;52101;-73
2023/06/21 12:25:15;;;;;;;;;;;;;;;26.53;57.51;100922.83;2257018;77;51579;-74
2023/06/21 12:28:18;;;;;;;;;;;;;;;26.53;57.49;100918.75;2209731;79;50995;-73
2023/06/21 12:31:20;;;;;;;;;;;;;;;26.55;57.38;100929.39;2256960;79;50288;-72
2023/06/21 12:34:22;;;;;;;;;;;;;;;26.55;57.35;100923.97;2256835;79;50786;-72
2023/06/21 12:37:23;;;;;;;;;;;;;;;26.56;57.33;100932.39;2256763;78;51490;-73
2023/06/21 12:40:25;;;;;;;;;;;;;;;26.55;57.32;100923.42;2226299;78;52382;-73
2023/06/21 12:43:39;;;;;;;;;;;;;;;26.55;57.31;100940.25;2255944;79;50256;-73
2023/06/21 12:46:41;;;;;;;;;;;;;;;26.55;57.31;100938.89;2256766;79;51476;-74
2023/06/21 12:49:44;;;;;;;;;;;;;;;26.51;57.35;100938.47;2256687;78;50198;-74
2023/06/21 12:52:46;;;;;;;;;;;;;;;26.52;57.35;100944.25;2256762;79;50296;-73
2023/06/21 12:55:47;;;;;;;;;;;;;;;26.54;57.30;100944.00;2234849;78;50215;-74
2023/06/21 12:58:49;;;;;;;;;;;;;;;26.51;57.33;100938.47;2233735;78;51547;-75
2023/06/21 13:01:53;;;;;;;;;;;;;;;26.53;57.25;100939.11;2256828;78;51472;-75
2023/06/21 13:04:54;;;;;;;;;;;;;;;26.55;57.19;100939.71;2257152;79;22476;-74
2023/06/21 13:07:56;;;;;;;;;;;;;;;26.55;57.18;100938.36;2233236;79;51503;-74
2023/06/21 13:10:58;;;;;;;;;;;;;;;26.55;57.21;100937.53;2272918;75;51800;-75
2023/06/21 13:13:59;;;;;;;;;;;;;;;26.55;57.18;100932.11;2312007;76;50362;-74
2023/06/21 13:17:01;;;;;;;;;;;;;;;26.53;57.19;100935.57;2292986;77;51691;-74
2023/06/21 13:20:04;;;;;;;;;;;;;;;26.54;57.10;100935.35;2315153;76;50312;-77
2023/06/21 13:23:06;;;;;;;;;;;;;;;26.55;57.08;100937.00;2268361;75;51197;-75
2023/06/21 13:26:08;;;;;;;;;;;;;;;26.57;57.03;100934.06;2315209;76;50629;-74
2023/06/21 13:29:09;;;;;;;;;;;;;;;26.58;56.98;100935.17;2267996;76;52382;-75
2023/06/21 13:32:11;;;;;;;;;;;;;;;26.58;56.92;100931.10;2315151;75;51425;-75
2023/06/21 13:35:12;;;;;;;;;;;;;;;26.56;57.02;100921.53;2292657;76;51407;-74
2023/06/21 13:38:14;;;;;;;;;;;;;;;26.54;57.02;100929.92;2315058;76;51533;-76
2023/06/21 13:41:16;;;;;;;;;;;;;;;26.57;56.95;100924.56;2252951;77;50953;-75
2023/06/21 13:44:17;;;;;;;;;;;;;;;26.55;56.97;100932.11;2256197;78;51600;-75
2023/06/21 13:47:19;;;;;;;;;;;;;;;26.54;56.99;100924.50;2256741;78;50335;-73
2023/06/21 13:50:20;;;;;;;;;;;;;;;26.55;56.93;100922.61;2249073;77;50739;-75
2023/06/21 13:53:22;;;;;;;;;;;;;;;26.54;56.91;100923.14;2252969;78;51150;-75
2023/06/21 13:56:24;;;;;;;;;;;;;;;26.58;56.80;100922.14;2252833;78;50270;-74
2023/06/21 13:59:25;;;;;;;;;;;;;;;26.58;56.77;100922.14;2274677;77;50255;-74
2023/06/21 14:02:27;;;;;;;;;;;;;;;26.55;56.83;100918.00;2253568;77;50383;-75
2023/06/21 14:05:28;;;;;;;;;;;;;;;26.60;56.68;100916.78;2253479;78;50309;-75
2023/06/21 14:08:30;;;;;;;;;;;;;;;26.59;56.66;100921.92;2274511;77;50207;-75
2023/06/21 14:11:32;;;;;;;;;;;;;;;26.57;56.69;100922.67;2258053;77;50624;-74
2023/06/21 14:14:33;;;;;;;;;;;;;;;26.57;56.66;100925.39;2231050;77;50329;-76
2023/06/21 14:17:35;;;;;;;;;;;;;;;26.58;56.61;100920.78;2231002;79;52603;-74
2023/06/21 14:20:36;;;;;;;;;;;;;;;26.58;56.55;100917.53;2254121;78;51496;-74
2023/06/21 14:23:38;;;;;;;;;;;;;;;26.56;56.53;100920.17;2254085;78;51501;-74
2023/06/21 14:26:40;;;;;;;;;;;;;;;26.58;56.45;100916.71;2230899;79;49970;-73
2023/06/21 14:29:44;;;;;;;;;;;;;;;26.57;56.42;100915.89;2231073;78;51202;-76
2023/06/21 14:32:44;;;;;;;;;;;;;;;26.57;56.43;100926.75;2254262;77;22262;-74
2023/06/21 14:35:46;;;;;;;;;;;;;;;26.56;56.37;100915.58;2231215;79;51847;-74
2023/06/21 14:38:48;;;;;;;;;;;;;;;26.55;56.39;100922.08;2253931;79;51448;-75
2023/06/21 14:41:50;;;;;;;;;;;;;;;26.54;56.33;100916.36;2234682;78;51751;-75
2023/06/21 14:44:51;;;;;;;;;;;;;;;26.55;56.33;100922.08;2283327;77;51439;-73
2023/06/21 14:47:54;;;;;;;;;;;;;;;26.56;56.26;100925.61;2274184;77;51480;-73
2023/06/21 14:50:57;;;;;;;;;;;;;;;26.55;56.24;100931.57;2233140;78;51775;-74
2023/06/21 14:53:59;;;;;;;;;;;;;;;26.57;56.15;100934.89;2207512;79;52774;-71
2023/06/21 14:57:00;;;;;;;;;;;;;;;26.69;54.27;100927.63;2253938;79;50351;-71
2023/06/21 15:00:02;;;;;;;;;;;;;;;26.65;53.13;100930.48;2234798;78;52109;-73
2023/06/21 15:03:04;;;;;;;;;;;;;;;26.69;52.70;100934.92;2256920;79;51538;-72
2023/06/21 15:06:05;;;;;;;;;;;;;;;26.76;52.07;100933.48;2253818;77;52378;-74
2023/06/21 15:09:07;;;;;;;;;;;;;;;26.69;53.17;100932.20;2233758;77;51476;-73
2023/06/21 15:12:09;;;;;;;;;;;;;;;26.65;54.12;100933.20;2282102;77;51426;-76
2023/06/21 15:15:11;;;;;;;;;;;;;;;26.59;54.46;100936.85;2232825;77;51482;-76
2023/06/21 15:18:13;;;;;;;;;;;;;;;26.59;54.82;100941.42;2208742;79;52435;-76
2023/06/21 15:21:14;;;;;;;;;;;;;;;26.60;55.02;100946.64;2257623;77;51500;-76
2023/06/21 15:24:16;;;;;;;;;;;;;;;26.58;55.30;100947.39;2275728;76;51412;-77
2023/06/21 15:27:17;;;;;;;;;;;;;;;26.57;55.17;100938.96;2254740;77;51588;-76
2023/06/21 15:30:19;;;;;;;;;;;;;;;26.59;55.70;100940.07;2207929;79;51453;-76
2023/06/21 15:33:21;;;;;;;;;;;;;;;26.60;55.85;100942.56;2264947;77;50268;-76
2023/06/21 15:36:22;;;;;;;;;;;;;;;26.61;56.38;100947.45;2314946;76;50741;-76
2023/06/21 15:39:24;;;;;;;;;;;;;;;26.63;56.69;100939.39;2221645;79;50961;-76
2023/06/21 15:42:25;;;;;;;;;;;;;;;26.67;56.31;100935.17;2258284;75;53232;-74